sensor_id;sensor_type;location;lat;lon;timestamp;P1;durP1;ratioP1;P2;durP2;ratioP2
71387;SDS011;59201;59.902;10.520;2022-10-16T00:01:28;1.57;;;0.60;;
71387;SDS011;59201;59.902;10.520;2022-10-16T00:03:54;2.80;;;0.70;;
71387;SDS011;59201;59.902;10.520;2022-10-16T00:06:21;3.75;;;0.77;;
71387;SDS011;59201;59.902;10.520;2022-10-16T00:08:48;0.90;;;0.50;;
71387;SDS011;59201;59.902;10.520;2022-10-16T00:11:18;1.95;;;0.60;;
71387;SDS011;59201;59.902;10.520;2022-10-16T00:13:45;1.37;;;0.50;;
71387;SDS011;59201;59.902;10.520;2022-10-16T00:16:11;1.00;;;0.60;;
71387;SDS011;59201;59.902;10.520;2022-10-16T00:18:38;2.50;;;0.65;;
71387;SDS011;59201;59.902;10.520;2022-10-16T00:21:08;1.73;;;0.70;;
71387;SDS011;59201;59.902;10.520;2022-10-16T00:23:34;1.90;;;0.70;;
71387;SDS011;59201;59.902;10.520;2022-10-16T00:26:02;2.70;;;0.70;;
71387;SDS011;59201;59.902;10.520;2022-10-16T00:28:28;1.92;;;0.60;;
71387;SDS011;59201;59.902;10.520;2022-10-16T00:30:54;1.17;;;0.60;;
71387;SDS011;59201;59.902;10.520;2022-10-16T00:33:20;1.52;;;0.60;;
71387;SDS011;59201;59.902;10.520;2022-10-16T00:35:47;1.30;;;0.60;;
71387;SDS011;59201;59.902;10.520;2022-10-16T00:38:13;2.03;;;0.60;;
71387;SDS011;59201;59.902;10.520;2022-10-16T00:40:39;2.45;;;0.68;;
71387;SDS011;59201;59.902;10.520;2022-10-16T00:43:31;1.13;;;0.55;;
71387;SDS011;59201;59.902;10.520;2022-10-16T00:45:58;1.33;;;0.63;;
71387;SDS011;59201;59.902;10.520;2022-10-16T00:48:24;1.50;;;0.60;;
71387;SDS011;59201;59.902;10.520;2022-10-16T00:50:50;1.50;;;0.70;;
71387;SDS011;59201;59.902;10.520;2022-10-16T00:53:16;1.30;;;0.55;;
71387;SDS011;59201;59.902;10.520;2022-10-16T00:55:43;2.00;;;0.65;;
71387;SDS011;59201;59.902;10.520;2022-10-16T00:58:09;1.42;;;0.80;;
71387;SDS011;59201;59.902;10.520;2022-10-16T01:00:35;1.75;;;0.70;;
71387;SDS011;59201;59.902;10.520;2022-10-16T01:03:01;2.13;;;0.80;;
71387;SDS011;59201;59.902;10.520;2022-10-16T01:05:30;1.85;;;0.60;;
71387;SDS011;59201;59.902;10.520;2022-10-16T01:08:03;1.73;;;0.60;;
71387;SDS011;59201;59.902;10.520;2022-10-16T01:10:38;1.58;;;0.68;;
71387;SDS011;59201;59.902;10.520;2022-10-16T01:13:07;1.98;;;0.60;;
71387;SDS011;59201;59.902;10.520;2022-10-16T01:18:14;3.33;;;0.70;;
71387;SDS011;59201;59.902;10.520;2022-10-16T01:20:47;2.15;;;0.60;;
71387;SDS011;59201;59.902;10.520;2022-10-16T01:28:17;1.40;;;0.70;;
71387;SDS011;59201;59.902;10.520;2022-10-16T01:30:44;2.67;;;0.60;;
71387;SDS011;59201;59.902;10.520;2022-10-16T01:35:43;1.95;;;0.80;;
71387;SDS011;59201;59.902;10.520;2022-10-16T01:38:27;1.25;;;0.60;;
71387;SDS011;59201;59.902;10.520;2022-10-16T01:40:57;1.60;;;0.70;;
71387;SDS011;59201;59.902;10.520;2022-10-16T01:43:26;3.42;;;0.77;;
71387;SDS011;59201;59.902;10.520;2022-10-16T01:45:54;1.50;;;0.60;;
71387;SDS011;59201;59.902;10.520;2022-10-16T01:48:21;1.45;;;0.60;;
71387;SDS011;59201;59.902;10.520;2022-10-16T01:50:51;2.60;;;0.60;;
71387;SDS011;59201;59.902;10.520;2022-10-16T01:53:17;1.67;;;0.67;;
71387;SDS011;59201;59.902;10.520;2022-10-16T01:55:44;2.58;;;0.75;;
71387;SDS011;59201;59.902;10.520;2022-10-16T01:58:12;1.98;;;0.60;;
71387;SDS011;59201;59.902;10.520;2022-10-16T02:00:39;2.47;;;0.68;;
71387;SDS011;59201;59.902;10.520;2022-10-16T02:03:06;1.55;;;0.70;;
71387;SDS011;59201;59.902;10.520;2022-10-16T02:06:06;1.77;;;0.53;;
71387;SDS011;59201;59.902;10.520;2022-10-16T02:08:26;1.98;;;0.70;;
71387;SDS011;59201;59.902;10.520;2022-10-16T02:10:54;1.33;;;0.50;;
71387;SDS011;59201;59.902;10.520;2022-10-16T02:15:46;1.35;;;0.60;;
71387;SDS011;59201;59.902;10.520;2022-10-16T02:18:12;2.17;;;0.70;;
71387;SDS011;59201;59.902;10.520;2022-10-16T02:20:44;1.75;;;0.60;;
71387;SDS011;59201;59.902;10.520;2022-10-16T02:23:12;1.92;;;0.50;;
71387;SDS011;59201;59.902;10.520;2022-10-16T02:25:41;1.08;;;0.57;;
71387;SDS011;59201;59.902;10.520;2022-10-16T02:28:17;1.17;;;0.60;;
71387;SDS011;59201;59.902;10.520;2022-10-16T02:30:47;2.90;;;0.60;;
71387;SDS011;59201;59.902;10.520;2022-10-16T02:33:14;2.33;;;0.75;;
71387;SDS011;59201;59.902;10.520;2022-10-16T02:35:41;2.58;;;0.98;;
71387;SDS011;59201;59.902;10.520;2022-10-16T02:38:09;3.65;;;0.80;;
71387;SDS011;59201;59.902;10.520;2022-10-16T02:40:35;1.88;;;0.70;;
71387;SDS011;59201;59.902;10.520;2022-10-16T02:43:02;1.83;;;0.63;;
71387;SDS011;59201;59.902;10.520;2022-10-16T02:45:28;2.58;;;0.73;;
71387;SDS011;59201;59.902;10.520;2022-10-16T02:47:55;5.38;;;0.80;;
71387;SDS011;59201;59.902;10.520;2022-10-16T02:50:21;4.22;;;0.70;;
71387;SDS011;59201;59.902;10.520;2022-10-16T02:52:47;1.95;;;0.60;;
71387;SDS011;59201;59.902;10.520;2022-10-16T02:55:13;1.60;;;0.60;;
71387;SDS011;59201;59.902;10.520;2022-10-16T02:57:39;2.13;;;0.70;;
71387;SDS011;59201;59.902;10.520;2022-10-16T03:00:06;3.28;;;0.70;;
71387;SDS011;59201;59.902;10.520;2022-10-16T03:02:32;2.05;;;0.70;;
71387;SDS011;59201;59.902;10.520;2022-10-16T03:04:58;1.90;;;0.63;;
71387;SDS011;59201;59.902;10.520;2022-10-16T03:07:25;2.87;;;0.80;;
71387;SDS011;59201;59.902;10.520;2022-10-16T03:09:51;1.90;;;0.70;;
71387;SDS011;59201;59.902;10.520;2022-10-16T03:12:17;1.88;;;0.60;;
71387;SDS011;59201;59.902;10.520;2022-10-16T03:14:43;1.70;;;0.60;;
71387;SDS011;59201;59.902;10.520;2022-10-16T03:17:09;2.42;;;0.70;;
71387;SDS011;59201;59.902;10.520;2022-10-16T03:19:35;2.50;;;0.80;;
71387;SDS011;59201;59.902;10.520;2022-10-16T03:22:01;2.80;;;0.77;;
71387;SDS011;59201;59.902;10.520;2022-10-16T03:24:27;1.67;;;0.60;;
71387;SDS011;59201;59.902;10.520;2022-10-16T03:26:54;2.78;;;0.50;;
71387;SDS011;59201;59.902;10.520;2022-10-16T03:29:20;1.25;;;0.52;;
71387;SDS011;59201;59.902;10.520;2022-10-16T03:31:46;1.73;;;0.70;;
71387;SDS011;59201;59.902;10.520;2022-10-16T03:34:14;2.28;;;0.77;;
71387;SDS011;59201;59.902;10.520;2022-10-16T03:36:40;1.75;;;0.60;;
71387;SDS011;59201;59.902;10.520;2022-10-16T03:39:06;3.42;;;0.60;;
71387;SDS011;59201;59.902;10.520;2022-10-16T03:41:32;2.38;;;0.70;;
71387;SDS011;59201;59.902;10.520;2022-10-16T03:43:58;1.37;;;0.60;;
71387;SDS011;59201;59.902;10.520;2022-10-16T03:46:25;2.67;;;0.70;;
71387;SDS011;59201;59.902;10.520;2022-10-16T03:48:51;2.42;;;0.70;;
71387;SDS011;59201;59.902;10.520;2022-10-16T03:51:17;3.35;;;0.68;;
71387;SDS011;59201;59.902;10.520;2022-10-16T03:53:43;2.45;;;0.80;;
71387;SDS011;59201;59.902;10.520;2022-10-16T03:56:09;2.33;;;0.63;;
71387;SDS011;59201;59.902;10.520;2022-10-16T03:58:35;2.80;;;0.82;;
71387;SDS011;59201;59.902;10.520;2022-10-16T04:01:01;3.47;;;0.90;;
71387;SDS011;59201;59.902;10.520;2022-10-16T04:03:27;3.15;;;0.90;;
71387;SDS011;59201;59.902;10.520;2022-10-16T04:05:54;3.42;;;0.90;;
71387;SDS011;59201;59.902;10.520;2022-10-16T04:08:20;3.10;;;0.80;;
71387;SDS011;59201;59.902;10.520;2022-10-16T04:10:46;3.53;;;0.90;;
71387;SDS011;59201;59.902;10.520;2022-10-16T04:13:12;2.53;;;0.70;;
71387;SDS011;59201;59.902;10.520;2022-10-16T04:15:38;3.35;;;0.85;;
71387;SDS011;59201;59.902;10.520;2022-10-16T04:18:04;3.10;;;0.90;;
71387;SDS011;59201;59.902;10.520;2022-10-16T04:20:31;3.90;;;1.00;;
71387;SDS011;59201;59.902;10.520;2022-10-16T04:22:57;4.20;;;0.90;;
71387;SDS011;59201;59.902;10.520;2022-10-16T04:25:23;4.72;;;1.00;;
71387;SDS011;59201;59.902;10.520;2022-10-16T04:27:49;2.85;;;0.82;;
71387;SDS011;59201;59.902;10.520;2022-10-16T04:30:15;3.00;;;0.77;;
71387;SDS011;59201;59.902;10.520;2022-10-16T04:32:41;5.50;;;1.00;;
71387;SDS011;59201;59.902;10.520;2022-10-16T04:35:07;3.45;;;0.90;;
71387;SDS011;59201;59.902;10.520;2022-10-16T04:37:33;5.63;;;1.05;;
71387;SDS011;59201;59.902;10.520;2022-10-16T04:39:59;3.40;;;1.10;;
71387;SDS011;59201;59.902;10.520;2022-10-16T04:42:26;3.58;;;1.00;;
71387;SDS011;59201;59.902;10.520;2022-10-16T04:44:52;4.03;;;0.90;;
71387;SDS011;59201;59.902;10.520;2022-10-16T04:47:18;3.10;;;0.90;;
71387;SDS011;59201;59.902;10.520;2022-10-16T04:49:44;3.97;;;1.10;;
71387;SDS011;59201;59.902;10.520;2022-10-16T04:52:10;4.05;;;1.00;;
71387;SDS011;59201;59.902;10.520;2022-10-16T04:54:36;3.25;;;0.88;;
71387;SDS011;59201;59.902;10.520;2022-10-16T04:57:02;3.23;;;0.90;;
71387;SDS011;59201;59.902;10.520;2022-10-16T04:59:29;5.90;;;1.10;;
71387;SDS011;59201;59.902;10.520;2022-10-16T05:01:56;5.03;;;1.10;;
71387;SDS011;59201;59.902;10.520;2022-10-16T05:04:22;4.50;;;1.17;;
71387;SDS011;59201;59.902;10.520;2022-10-16T05:06:48;4.40;;;1.15;;
71387;SDS011;59201;59.902;10.520;2022-10-16T05:09:14;6.37;;;1.30;;
71387;SDS011;59201;59.902;10.520;2022-10-16T05:11:40;4.00;;;1.00;;
71387;SDS011;59201;59.902;10.520;2022-10-16T05:14:06;3.70;;;1.10;;
71387;SDS011;59201;59.902;10.520;2022-10-16T05:16:32;4.78;;;1.10;;
71387;SDS011;59201;59.902;10.520;2022-10-16T05:18:58;3.88;;;1.10;;
71387;SDS011;59201;59.902;10.520;2022-10-16T05:21:24;3.63;;;1.00;;
71387;SDS011;59201;59.902;10.520;2022-10-16T05:23:50;5.88;;;1.20;;
71387;SDS011;59201;59.902;10.520;2022-10-16T05:26:16;5.05;;;1.02;;
71387;SDS011;59201;59.902;10.520;2022-10-16T05:28:42;5.07;;;1.00;;
71387;SDS011;59201;59.902;10.520;2022-10-16T05:31:08;6.53;;;1.40;;
71387;SDS011;59201;59.902;10.520;2022-10-16T05:33:35;4.17;;;1.20;;
71387;SDS011;59201;59.902;10.520;2022-10-16T05:36:10;5.55;;;1.30;;
71387;SDS011;59201;59.902;10.520;2022-10-16T05:38:36;8.48;;;1.70;;
71387;SDS011;59201;59.902;10.520;2022-10-16T05:41:03;4.97;;;1.40;;
71387;SDS011;59201;59.902;10.520;2022-10-16T05:43:30;4.18;;;1.30;;
71387;SDS011;59201;59.902;10.520;2022-10-16T05:45:57;5.20;;;1.50;;
71387;SDS011;59201;59.902;10.520;2022-10-16T05:48:26;4.80;;;1.40;;
71387;SDS011;59201;59.902;10.520;2022-10-16T05:50:56;4.95;;;1.30;;
71387;SDS011;59201;59.902;10.520;2022-10-16T05:53:23;5.13;;;1.70;;
71387;SDS011;59201;59.902;10.520;2022-10-16T05:55:53;5.63;;;1.50;;
71387;SDS011;59201;59.902;10.520;2022-10-16T05:58:20;5.43;;;2.47;;
71387;SDS011;59201;59.902;10.520;2022-10-16T06:00:56;5.55;;;2.35;;
71387;SDS011;59201;59.902;10.520;2022-10-16T06:03:22;5.32;;;1.88;;
71387;SDS011;59201;59.902;10.520;2022-10-16T06:05:49;4.95;;;1.70;;
71387;SDS011;59201;59.902;10.520;2022-10-16T06:08:15;5.13;;;1.38;;
71387;SDS011;59201;59.902;10.520;2022-10-16T06:10:41;4.70;;;1.40;;
71387;SDS011;59201;59.902;10.520;2022-10-16T06:13:08;5.63;;;1.35;;
71387;SDS011;59201;59.902;10.520;2022-10-16T06:15:34;5.05;;;1.20;;
71387;SDS011;59201;59.902;10.520;2022-10-16T06:18:00;4.03;;;1.20;;
71387;SDS011;59201;59.902;10.520;2022-10-16T06:20:26;5.82;;;1.20;;
71387;SDS011;59201;59.902;10.520;2022-10-16T06:22:52;4.83;;;1.10;;
71387;SDS011;59201;59.902;10.520;2022-10-16T06:25:19;4.75;;;1.25;;
71387;SDS011;59201;59.902;10.520;2022-10-16T06:27:45;4.50;;;1.33;;
71387;SDS011;59201;59.902;10.520;2022-10-16T06:30:11;4.80;;;1.40;;
71387;SDS011;59201;59.902;10.520;2022-10-16T06:32:37;6.50;;;1.52;;
71387;SDS011;59201;59.902;10.520;2022-10-16T06:35:03;4.87;;;1.40;;
71387;SDS011;59201;59.902;10.520;2022-10-16T06:37:29;4.82;;;1.65;;
71387;SDS011;59201;59.902;10.520;2022-10-16T06:39:56;6.30;;;2.08;;
71387;SDS011;59201;59.902;10.520;2022-10-16T06:42:22;7.03;;;1.92;;
71387;SDS011;59201;59.902;10.520;2022-10-16T06:44:48;5.43;;;1.88;;
71387;SDS011;59201;59.902;10.520;2022-10-16T06:47:14;5.47;;;1.90;;
71387;SDS011;59201;59.902;10.520;2022-10-16T06:49:40;6.65;;;1.70;;
71387;SDS011;59201;59.902;10.520;2022-10-16T06:52:06;5.10;;;1.70;;
71387;SDS011;59201;59.902;10.520;2022-10-16T06:54:32;5.10;;;1.80;;
71387;SDS011;59201;59.902;10.520;2022-10-16T06:56:58;5.35;;;1.77;;
71387;SDS011;59201;59.902;10.520;2022-10-16T06:59:25;5.30;;;1.40;;
71387;SDS011;59201;59.902;10.520;2022-10-16T07:01:51;5.93;;;1.73;;
71387;SDS011;59201;59.902;10.520;2022-10-16T07:04:17;5.63;;;1.67;;
71387;SDS011;59201;59.902;10.520;2022-10-16T07:06:43;4.72;;;1.50;;
71387;SDS011;59201;59.902;10.520;2022-10-16T07:09:09;5.93;;;1.80;;
71387;SDS011;59201;59.902;10.520;2022-10-16T07:11:36;6.40;;;1.97;;
71387;SDS011;59201;59.902;10.520;2022-10-16T07:14:03;5.93;;;2.00;;
71387;SDS011;59201;59.902;10.520;2022-10-16T07:16:30;7.03;;;2.30;;
71387;SDS011;59201;59.902;10.520;2022-10-16T07:18:57;5.95;;;2.10;;
71387;SDS011;59201;59.902;10.520;2022-10-16T07:21:24;6.43;;;2.17;;
71387;SDS011;59201;59.902;10.520;2022-10-16T07:23:54;7.83;;;2.60;;
71387;SDS011;59201;59.902;10.520;2022-10-16T07:26:21;6.70;;;2.00;;
71387;SDS011;59201;59.902;10.520;2022-10-16T07:28:47;7.70;;;2.30;;
71387;SDS011;59201;59.902;10.520;2022-10-16T07:31:13;10.35;;;2.35;;
71387;SDS011;59201;59.902;10.520;2022-10-16T07:33:40;5.82;;;1.95;;
71387;SDS011;59201;59.902;10.520;2022-10-16T07:36:10;7.17;;;2.37;;
71387;SDS011;59201;59.902;10.520;2022-10-16T07:38:36;6.25;;;2.25;;
71387;SDS011;59201;59.902;10.520;2022-10-16T07:41:04;6.40;;;2.08;;
71387;SDS011;59201;59.902;10.520;2022-10-16T07:43:30;6.60;;;2.35;;
71387;SDS011;59201;59.902;10.520;2022-10-16T07:45:56;7.28;;;2.75;;
71387;SDS011;59201;59.902;10.520;2022-10-16T07:48:23;6.50;;;2.50;;
71387;SDS011;59201;59.902;10.520;2022-10-16T07:50:49;8.80;;;2.85;;
71387;SDS011;59201;59.902;10.520;2022-10-16T07:53:15;7.93;;;3.03;;
71387;SDS011;59201;59.902;10.520;2022-10-16T07:55:41;7.18;;;3.20;;
71387;SDS011;59201;59.902;10.520;2022-10-16T07:58:08;9.15;;;3.65;;
71387;SDS011;59201;59.902;10.520;2022-10-16T08:00:35;9.40;;;3.33;;
71387;SDS011;59201;59.902;10.520;2022-10-16T08:03:02;8.20;;;3.17;;
71387;SDS011;59201;59.902;10.520;2022-10-16T08:05:28;10.93;;;3.30;;
71387;SDS011;59201;59.902;10.520;2022-10-16T08:07:54;8.32;;;2.90;;
71387;SDS011;59201;59.902;10.520;2022-10-16T08:10:21;7.57;;;3.10;;
71387;SDS011;59201;59.902;10.520;2022-10-16T08:12:47;6.33;;;2.60;;
71387;SDS011;59201;59.902;10.520;2022-10-16T08:15:14;7.50;;;2.90;;
71387;SDS011;59201;59.902;10.520;2022-10-16T08:17:40;7.53;;;2.60;;
71387;SDS011;59201;59.902;10.520;2022-10-16T08:20:06;6.82;;;2.63;;
71387;SDS011;59201;59.902;10.520;2022-10-16T08:22:32;6.30;;;2.60;;
71387;SDS011;59201;59.902;10.520;2022-10-16T08:24:58;7.17;;;2.80;;
71387;SDS011;59201;59.902;10.520;2022-10-16T08:27:24;7.15;;;3.00;;
71387;SDS011;59201;59.902;10.520;2022-10-16T08:29:50;8.35;;;3.17;;
71387;SDS011;59201;59.902;10.520;2022-10-16T08:32:16;8.35;;;3.35;;
71387;SDS011;59201;59.902;10.520;2022-10-16T08:34:42;8.27;;;3.72;;
71387;SDS011;59201;59.902;10.520;2022-10-16T08:37:08;8.63;;;3.67;;
71387;SDS011;59201;59.902;10.520;2022-10-16T08:39:37;10.48;;;3.55;;
71387;SDS011;59201;59.902;10.520;2022-10-16T08:42:21;7.20;;;2.95;;
71387;SDS011;59201;59.902;10.520;2022-10-16T08:50:30;9.23;;;3.47;;
71387;SDS011;59201;59.902;10.520;2022-10-16T08:52:38;10.52;;;3.20;;
71387;SDS011;59201;59.902;10.520;2022-10-16T08:55:05;9.88;;;3.00;;
71387;SDS011;59201;59.902;10.520;2022-10-16T08:57:31;7.88;;;2.67;;
71387;SDS011;59201;59.902;10.520;2022-10-16T08:59:59;7.40;;;2.90;;
71387;SDS011;59201;59.902;10.520;2022-10-16T09:07:53;7.82;;;2.72;;
71387;SDS011;59201;59.902;10.520;2022-10-16T09:13:02;8.20;;;2.85;;
71387;SDS011;59201;59.902;10.520;2022-10-16T09:16:30;7.30;;;2.93;;
71387;SDS011;59201;59.902;10.520;2022-10-16T09:18:27;6.68;;;2.72;;
71387;SDS011;59201;59.902;10.520;2022-10-16T09:23:45;7.05;;;2.50;;
71387;SDS011;59201;59.902;10.520;2022-10-16T09:26:12;9.25;;;2.88;;
71387;SDS011;59201;59.902;10.520;2022-10-16T09:28:39;6.80;;;2.70;;
71387;SDS011;59201;59.902;10.520;2022-10-16T09:31:05;9.43;;;3.50;;
71387;SDS011;59201;59.902;10.520;2022-10-16T09:33:35;11.70;;;3.90;;
71387;SDS011;59201;59.902;10.520;2022-10-16T09:36:02;8.00;;;3.15;;
71387;SDS011;59201;59.902;10.520;2022-10-16T09:38:30;9.75;;;3.28;;
71387;SDS011;59201;59.902;10.520;2022-10-16T09:40:57;8.37;;;3.10;;
71387;SDS011;59201;59.902;10.520;2022-10-16T09:45:57;8.90;;;3.45;;
71387;SDS011;59201;59.902;10.520;2022-10-16T09:48:23;9.48;;;4.20;;
71387;SDS011;59201;59.902;10.520;2022-10-16T09:50:57;8.75;;;3.83;;
71387;SDS011;59201;59.902;10.520;2022-10-16T09:53:24;9.33;;;3.80;;
71387;SDS011;59201;59.902;10.520;2022-10-16T09:55:53;9.43;;;4.25;;
71387;SDS011;59201;59.902;10.520;2022-10-16T09:58:23;11.52;;;4.72;;
71387;SDS011;59201;59.902;10.520;2022-10-16T10:00:50;9.65;;;4.57;;
71387;SDS011;59201;59.902;10.520;2022-10-16T10:03:30;11.85;;;5.28;;
71387;SDS011;59201;59.902;10.520;2022-10-16T10:06:06;13.73;;;5.10;;
71387;SDS011;59201;59.902;10.520;2022-10-16T10:08:33;12.20;;;5.20;;
71387;SDS011;59201;59.902;10.520;2022-10-16T10:10:59;15.05;;;6.30;;
71387;SDS011;59201;59.902;10.520;2022-10-16T10:13:25;12.05;;;5.22;;
71387;SDS011;59201;59.902;10.520;2022-10-16T10:15:52;12.40;;;5.97;;
71387;SDS011;59201;59.902;10.520;2022-10-16T10:18:19;11.77;;;5.87;;
71387;SDS011;59201;59.902;10.520;2022-10-16T10:20:59;13.60;;;6.53;;
71387;SDS011;59201;59.902;10.520;2022-10-16T10:23:26;11.60;;;5.70;;
71387;SDS011;59201;59.902;10.520;2022-10-16T10:28:32;14.50;;;7.05;;
71387;SDS011;59201;59.902;10.520;2022-10-16T10:33:41;14.32;;;6.85;;
71387;SDS011;59201;59.902;10.520;2022-10-16T10:41:12;14.63;;;5.85;;
71387;SDS011;59201;59.902;10.520;2022-10-16T10:46:14;14.52;;;6.00;;
71387;SDS011;59201;59.902;10.520;2022-10-16T11:06:57;11.60;;;4.10;;
71387;SDS011;59201;59.902;10.520;2022-10-16T11:09:30;10.90;;;3.60;;
71387;SDS011;59201;59.902;10.520;2022-10-16T11:12:04;8.77;;;3.40;;
71387;SDS011;59201;59.902;10.520;2022-10-16T11:17:08;29.08;;;9.07;;
71387;SDS011;59201;59.902;10.520;2022-10-16T11:19:53;24.70;;;10.18;;
71387;SDS011;59201;59.902;10.520;2022-10-16T11:22:27;13.33;;;6.53;;
71387;SDS011;59201;59.902;10.520;2022-10-16T11:27:43;14.30;;;5.22;;
71387;SDS011;59201;59.902;10.520;2022-10-16T11:30:44;13.68;;;5.88;;
71387;SDS011;59201;59.902;10.520;2022-10-16T11:38:03;10.63;;;4.30;;
71387;SDS011;59201;59.902;10.520;2022-10-16T11:40:37;11.07;;;4.32;;
71387;SDS011;59201;59.902;10.520;2022-10-16T11:43:13;14.45;;;4.82;;
71387;SDS011;59201;59.902;10.520;2022-10-16T11:46:02;39.30;;;12.25;;
71387;SDS011;59201;59.902;10.520;2022-10-16T11:48:33;17.83;;;5.67;;
71387;SDS011;59201;59.902;10.520;2022-10-16T11:51:07;21.38;;;8.55;;
71387;SDS011;59201;59.902;10.520;2022-10-16T11:53:50;12.88;;;3.83;;
71387;SDS011;59201;59.902;10.520;2022-10-16T11:56:17;10.55;;;3.90;;
71387;SDS011;59201;59.902;10.520;2022-10-16T12:01:30;17.13;;;7.50;;
71387;SDS011;59201;59.902;10.520;2022-10-16T12:06:44;17.42;;;5.72;;
71387;SDS011;59201;59.902;10.520;2022-10-16T12:09:15;15.32;;;7.07;;
71387;SDS011;59201;59.902;10.520;2022-10-16T12:11:44;17.98;;;6.85;;
71387;SDS011;59201;59.902;10.520;2022-10-16T12:16:37;11.73;;;4.40;;
71387;SDS011;59201;59.902;10.520;2022-10-16T12:19:12;11.88;;;3.85;;
71387;SDS011;59201;59.902;10.520;2022-10-16T12:21:38;17.60;;;6.82;;
71387;SDS011;59201;59.902;10.520;2022-10-16T12:24:05;27.95;;;9.32;;
71387;SDS011;59201;59.902;10.520;2022-10-16T12:26:37;11.37;;;4.40;;
71387;SDS011;59201;59.902;10.520;2022-10-16T12:29:14;12.32;;;4.60;;
71387;SDS011;59201;59.902;10.520;2022-10-16T12:31:47;9.80;;;3.33;;
71387;SDS011;59201;59.902;10.520;2022-10-16T12:34:20;9.07;;;3.08;;
71387;SDS011;59201;59.902;10.520;2022-10-16T12:36:47;9.00;;;2.80;;
71387;SDS011;59201;59.902;10.520;2022-10-16T12:39:20;9.70;;;3.10;;
71387;SDS011;59201;59.902;10.520;2022-10-16T12:41:46;9.00;;;3.38;;
71387;SDS011;59201;59.902;10.520;2022-10-16T12:44:25;10.38;;;3.38;;
71387;SDS011;59201;59.902;10.520;2022-10-16T12:46:51;11.25;;;3.17;;
71387;SDS011;59201;59.902;10.520;2022-10-16T12:49:31;9.75;;;3.35;;
71387;SDS011;59201;59.902;10.520;2022-10-16T12:51:57;9.17;;;3.23;;
71387;SDS011;59201;59.902;10.520;2022-10-16T12:54:36;9.32;;;3.40;;
71387;SDS011;59201;59.902;10.520;2022-10-16T13:10:24;10.93;;;2.83;;
71387;SDS011;59201;59.902;10.520;2022-10-16T13:28:27;9.23;;;3.35;;
71387;SDS011;59201;59.902;10.520;2022-10-16T13:30:54;8.63;;;2.20;;
71387;SDS011;59201;59.902;10.520;2022-10-16T13:33:35;7.60;;;2.35;;
71387;SDS011;59201;59.902;10.520;2022-10-16T13:36:02;5.43;;;1.95;;
71387;SDS011;59201;59.902;10.520;2022-10-16T13:38:32;7.55;;;2.60;;
71387;SDS011;59201;59.902;10.520;2022-10-16T13:41:00;6.97;;;2.40;;
71387;SDS011;59201;59.902;10.520;2022-10-16T13:45:56;9.73;;;3.47;;
71387;SDS011;59201;59.902;10.520;2022-10-16T13:48:23;8.55;;;4.03;;
71387;SDS011;59201;59.902;10.520;2022-10-16T13:50:59;10.02;;;3.58;;
71387;SDS011;59201;59.902;10.520;2022-10-16T13:53:25;9.15;;;3.33;;
71387;SDS011;59201;59.902;10.520;2022-10-16T13:55:51;9.50;;;3.77;;
71387;SDS011;59201;59.902;10.520;2022-10-16T13:58:17;9.02;;;3.08;;
71387;SDS011;59201;59.902;10.520;2022-10-16T14:00:59;9.23;;;2.80;;
71387;SDS011;59201;59.902;10.520;2022-10-16T14:03:27;8.85;;;3.90;;
71387;SDS011;59201;59.902;10.520;2022-10-16T14:05:55;10.18;;;3.45;;
71387;SDS011;59201;59.902;10.520;2022-10-16T14:08:22;8.33;;;3.00;;
71387;SDS011;59201;59.902;10.520;2022-10-16T14:10:50;11.75;;;3.03;;
71387;SDS011;59201;59.902;10.520;2022-10-16T14:13:18;11.38;;;2.97;;
71387;SDS011;59201;59.902;10.520;2022-10-16T14:15:46;7.22;;;2.53;;
71387;SDS011;59201;59.902;10.520;2022-10-16T14:18:15;11.05;;;2.70;;
71387;SDS011;59201;59.902;10.520;2022-10-16T14:20:44;9.57;;;3.17;;
71387;SDS011;59201;59.902;10.520;2022-10-16T14:23:19;12.88;;;3.90;;
71387;SDS011;59201;59.902;10.520;2022-10-16T14:25:46;13.27;;;4.90;;
71387;SDS011;59201;59.902;10.520;2022-10-16T14:30:48;8.83;;;3.20;;
71387;SDS011;59201;59.902;10.520;2022-10-16T14:33:33;9.10;;;2.90;;
71387;SDS011;59201;59.902;10.520;2022-10-16T14:36:06;7.32;;;2.95;;
71387;SDS011;59201;59.902;10.520;2022-10-16T14:38:38;8.85;;;3.33;;
71387;SDS011;59201;59.902;10.520;2022-10-16T14:41:04;14.07;;;5.88;;
71387;SDS011;59201;59.902;10.520;2022-10-16T14:43:50;28.17;;;12.80;;
71387;SDS011;59201;59.902;10.520;2022-10-16T14:46:18;20.23;;;9.50;;
71387;SDS011;59201;59.902;10.520;2022-10-16T14:48:47;9.10;;;4.05;;
71387;SDS011;59201;59.902;10.520;2022-10-16T14:51:15;12.70;;;4.10;;
71387;SDS011;59201;59.902;10.520;2022-10-16T14:53:41;11.32;;;4.90;;
71387;SDS011;59201;59.902;10.520;2022-10-16T14:56:08;13.38;;;5.05;;
71387;SDS011;59201;59.902;10.520;2022-10-16T14:58:35;13.50;;;4.30;;
71387;SDS011;59201;59.902;10.520;2022-10-16T15:01:01;10.25;;;3.90;;
71387;SDS011;59201;59.902;10.520;2022-10-16T15:03:27;10.15;;;3.80;;
71387;SDS011;59201;59.902;10.520;2022-10-16T15:06:02;8.93;;;3.80;;
71387;SDS011;59201;59.902;10.520;2022-10-16T15:08:29;11.05;;;3.47;;
71387;SDS011;59201;59.902;10.520;2022-10-16T15:10:55;8.67;;;2.87;;
71387;SDS011;59201;59.902;10.520;2022-10-16T15:13:21;9.00;;;2.67;;
71387;SDS011;59201;59.902;10.520;2022-10-16T15:15:47;7.97;;;2.60;;
71387;SDS011;59201;59.902;10.520;2022-10-16T15:18:14;7.75;;;2.55;;
71387;SDS011;59201;59.902;10.520;2022-10-16T15:20:45;10.38;;;3.45;;
71387;SDS011;59201;59.902;10.520;2022-10-16T15:23:14;9.40;;;2.77;;
71387;SDS011;59201;59.902;10.520;2022-10-16T15:25:45;7.00;;;2.20;;
71387;SDS011;59201;59.902;10.520;2022-10-16T15:28:12;8.60;;;2.97;;
71387;SDS011;59201;59.902;10.520;2022-10-16T15:30:39;8.23;;;2.47;;
71387;SDS011;59201;59.902;10.520;2022-10-16T15:33:05;8.68;;;3.75;;
71387;SDS011;59201;59.902;10.520;2022-10-16T15:35:35;10.03;;;4.53;;
71387;SDS011;59201;59.902;10.520;2022-10-16T15:38:01;11.80;;;5.32;;
71387;SDS011;59201;59.902;10.520;2022-10-16T15:40:27;8.75;;;3.40;;
71387;SDS011;59201;59.902;10.520;2022-10-16T15:42:53;10.25;;;3.13;;
71387;SDS011;59201;59.902;10.520;2022-10-16T15:45:19;7.28;;;2.30;;
71387;SDS011;59201;59.902;10.520;2022-10-16T15:47:46;6.97;;;2.33;;
71387;SDS011;59201;59.902;10.520;2022-10-16T15:50:13;7.07;;;2.00;;
71387;SDS011;59201;59.902;10.520;2022-10-16T15:52:39;6.07;;;1.75;;
71387;SDS011;59201;59.902;10.520;2022-10-16T15:55:09;6.20;;;2.38;;
71387;SDS011;59201;59.902;10.520;2022-10-16T15:57:36;6.68;;;2.20;;
71387;SDS011;59201;59.902;10.520;2022-10-16T16:00:07;7.00;;;2.20;;
71387;SDS011;59201;59.902;10.520;2022-10-16T16:02:34;6.60;;;1.95;;
71387;SDS011;59201;59.902;10.520;2022-10-16T16:05:02;7.63;;;2.22;;
71387;SDS011;59201;59.902;10.520;2022-10-16T16:07:29;7.50;;;2.60;;
71387;SDS011;59201;59.902;10.520;2022-10-16T16:09:57;7.82;;;2.10;;
71387;SDS011;59201;59.902;10.520;2022-10-16T16:12:23;7.33;;;2.17;;
71387;SDS011;59201;59.902;10.520;2022-10-16T16:14:49;8.95;;;2.25;;
71387;SDS011;59201;59.902;10.520;2022-10-16T16:17:16;6.85;;;2.15;;
71387;SDS011;59201;59.902;10.520;2022-10-16T16:19:42;6.18;;;2.33;;
71387;SDS011;59201;59.902;10.520;2022-10-16T16:22:08;6.05;;;2.10;;
71387;SDS011;59201;59.902;10.520;2022-10-16T16:24:34;5.73;;;1.63;;
71387;SDS011;59201;59.902;10.520;2022-10-16T16:27:00;8.23;;;2.08;;
71387;SDS011;59201;59.902;10.520;2022-10-16T16:29:26;9.55;;;3.08;;
71387;SDS011;59201;59.902;10.520;2022-10-16T16:31:52;8.50;;;2.10;;